Latest Weather Observations for Mount Ginini

IDN60901

Issued at 10:01 pm EDT Saturday 25 January 2020 (issued every 10 minutes, with the page automatically refreshed every 10 minutes)

About weather observations | Map of Canberra area stations | Latest observations for Canberra area | Other Formats
Station Details ID: 070349 Name: MOUNT GININI AWS Lat: -35.53 Lon: 148.77 Height: 1760.0 m
Data from the previous 72 hours. | See also: Recent months at Mount Ginini
Date/Time
EDT
Temp
°C
App
Temp
°C
Dew
Point
°C
Rel
Hum
%
Delta-T
°C
Wind Press
QNH
hPa
Press
MSL
hPa
Rain since
9am
mm
Dir  Spd
km/h
Gust
km/h
Spd
kts
Gust
kts
25/10:00pm 15.5 12.2 -1.1 32 7.6 WNW 6 17 3 9 - - 0.0
25/09:30pm 15.3 11.3 -2.6 29 8.0 W 9 15 5 8 - - 0.0
25/09:00pm 15.5 11.2 -2.0 30 7.9 W 11 15 6 8 - - 0.0
25/08:30pm 15.8 11.8 -2.6 28 8.2 NW 9 13 5 7 - - 0.0
25/08:00pm 17.0 13.0 -2.1 27 8.7 NW 9 17 5 9 - - 0.0
25/07:30pm 18.6 14.2 -2.3 24 9.6 NW 11 22 6 12 - - 0.0
25/07:00pm 20.2 15.9 -1.6 23 10.3 NW 11 22 6 12 - - 0.0
25/06:30pm 21.6 17.8 -1.0 22 10.9 WNW 9 20 5 11 - - 0.0
25/06:00pm 22.1 18.4 0.0 23 10.9 W 9 26 5 14 - - 0.0
25/05:30pm 22.6 18.8 -0.8 21 11.4 W 9 22 5 12 - - 0.0
25/05:00pm 22.8 18.5 1.2 24 11.0 W 13 24 7 13 - - 0.0
25/04:30pm 22.6 18.7 1.0 24 10.9 NW 11 26 6 14 - - 0.0
25/04:00pm 22.8 18.2 1.8 25 10.8 NW 15 30 8 16 - - 0.0
25/03:30pm 22.1 16.5 0.0 23 10.9 WNW 19 33 10 18 - - 0.0
25/03:00pm 22.0 17.7 1.1 25 10.5 WNW 13 26 7 14 - - 0.0
25/02:30pm 21.7 17.5 1.9 27 10.1 NW 13 24 7 13 - - 0.0
25/02:00pm 21.5 17.1 2.7 29 9.7 WNW 15 28 8 15 - - 0.0
25/01:30pm 20.9 16.0 1.7 28 9.7 NW 17 30 9 16 - - 0.0
25/01:00pm 20.7 17.4 4.3 34 8.7 NW 11 30 6 16 - - 0.0
25/12:30pm 19.7 15.9 5.7 40 7.6 NNW 15 30 8 16 - - 0.0
25/12:00pm 18.9 15.7 6.7 45 6.7 NW 13 26 7 14 - - 0.0
25/11:30am 17.9 15.4 6.4 47 6.2 NW 9 20 5 11 - - 0.0
25/11:00am 17.0 13.5 5.6 47 6.1 NNW 13 24 7 13 - - 0.0
25/10:30am 16.1 12.7 5.7 50 5.5 NNW 13 28 7 15 - - 0.0
25/10:00am 15.3 10.8 4.1 47 5.7 NNW 17 32 9 17 - - 0.0
25/09:30am 14.3 12.0 9.1 71 2.9 N 11 26 6 14 - - 0.0
25/09:00am 13.3 10.5 6.9 65 3.4 NNE 11 20 6 11 - - 0.0
25/08:30am 12.1 10.4 11.3 95 0.5 NNE 11 22 6 12 - - 0.0
25/08:00am 10.4 8.4 10.1 98 0.2 N 11 20 6 11 - - 0.0
25/07:30am 10.0 7.9 9.7 98 0.2 N 11 24 6 13 - - 0.0
25/07:00am 9.4 7.1 9.1 98 0.2 N 11 24 6 13 - - 0.0
25/06:30am 9.6 7.4 9.3 98 0.2 N 11 22 6 12 - - 0.0
25/06:00am 9.7 7.1 9.4 98 0.2 N 13 22 7 12 - - 0.0
25/05:30am 10.0 7.5 9.7 98 0.2 N 13 32 7 17 - - 0.0
25/05:00am 9.7 6.7 9.4 98 0.2 NNE 15 26 8 14 - - 0.0
25/04:30am 9.5 6.9 9.2 98 0.2 NNE 13 22 7 12 - - 0.0
25/04:00am 9.8 6.9 9.5 98 0.2 NNE 15 30 8 16 - - 0.0
25/03:30am 9.4 6.0 9.1 98 0.2 NE 17 32 9 17 - - 0.0
25/03:00am 9.7 6.7 9.4 98 0.2 NE 15 28 8 15 - - 0.0
25/02:30am 9.7 6.4 9.4 98 0.2 NE 17 30 9 16 - - 0.0
25/02:00am 9.6 5.9 9.3 98 0.2 NE 19 32 10 17 - - 0.0
25/01:30am 9.5 5.7 9.2 98 0.2 NE 19 32 10 17 - - 0.0
25/01:00am 9.5 5.7 9.0 97 0.3 NE 19 30 10 16 - - 0.0
25/12:30am 9.4 5.9 8.9 97 0.3 NE 17 28 9 15 - - 0.0
25/12:00am 9.5 6.1 9.0 97 0.3 ENE 17 28 9 15 - - 0.0
 
Date/Time
EDT
Temp
°C
App
Temp
°C
Dew
Point
°C
Rel
Hum
%
Delta-T
°C
Wind Press
QNH
hPa
Press
MSL
hPa
Rain since
9am
mm
Dir  Spd
km/h
Gust
km/h
Spd
kts
Gust
kts
24/11:30pm 9.0 5.3 8.1 94 0.5 ENE 17 30 9 16 - - 0.0
24/11:00pm 9.8 5.0 2.6 61 3.4 ENE 17 28 9 15 - - 0.0
24/10:30pm 10.7 6.8 1.3 52 4.4 ENE 11 19 6 10 - - 0.0
24/10:00pm 12.3 9.8 -0.9 40 5.9 ESE 2 6 1 3 - - 0.0
24/09:30pm 12.3 9.4 -0.9 40 5.9 SSW 4 6 2 3 - - 0.0
24/09:00pm 12.1 8.3 -1.1 40 5.9 SSW 9 13 5 7 - - 0.0
24/08:30pm 12.8 8.3 -0.4 40 6.0 SSW 13 19 7 10 - - 0.0
24/08:00pm 14.1 10.5 0.4 39 6.4 SW 9 17 5 9 - - 0.0
24/07:30pm 15.6 12.3 0.2 35 7.3 SW 7 19 4 10 - - 0.0
24/07:00pm 16.5 13.3 1.0 35 7.5 WSW 7 19 4 10 - - 0.0
24/06:30pm 16.9 12.4 -0.3 31 8.1 WSW 13 22 7 12 - - 0.0
24/06:00pm 18.0 14.1 1.1 32 8.3 WSW 11 24 6 13 - - 0.0
24/05:30pm 18.2 14.8 1.7 33 8.2 W 9 24 5 13 - - 0.0
24/05:00pm 17.8 14.1 2.2 35 7.8 WNW 11 26 6 14 - - 0.0
24/04:30pm 18.3 14.6 2.2 34 8.1 WSW 11 26 6 14 - - 0.0
24/04:00pm 17.5 13.1 0.6 32 8.2 WNW 13 28 7 15 - - 0.0
24/03:30pm 18.2 14.0 3.7 38 7.5 WNW 15 26 8 14 - - 0.0
24/03:00pm 17.1 13.0 2.3 37 7.4 WNW 13 26 7 14 - - 0.0
24/02:30pm 17.2 13.2 3.1 39 7.1 WNW 13 26 7 14 - - 0.0
24/02:00pm 16.9 13.5 3.9 42 6.7 WNW 11 24 6 13 - - 0.0
24/01:30pm 15.7 11.9 3.8 45 6.0 NW 13 30 7 16 - - 0.0
24/01:00pm 15.8 12.4 5.7 51 5.3 WNW 13 26 7 14 - - 0.0
24/12:30pm 14.1 10.3 5.7 57 4.4 WNW 15 28 8 15 - - 0.0
24/12:00pm 13.6 10.4 6.9 64 3.6 W 13 24 7 13 - - 0.0
24/11:30am 12.9 9.6 6.5 65 3.4 W 13 26 7 14 - - 0.0
24/11:00am 12.0 8.6 7.7 75 2.3 WNW 15 28 8 15 - - 0.0
24/10:30am 10.9 6.6 6.8 76 2.1 WNW 19 32 10 17 - - 0.0
24/10:00am 9.9 5.9 6.6 80 1.7 WNW 17 35 9 19 - - 0.0
24/09:30am 9.1 5.8 8.2 94 0.5 WNW 15 26 8 14 - - 0.0
24/09:00am 8.1 3.8 7.2 94 0.5 NW 19 32 10 17 - - 3.4
24/08:30am 7.5 3.9 6.8 95 0.4 WNW 15 28 8 15 - - 3.4
24/08:00am 7.1 3.8 6.4 95 0.4 WNW 13 28 7 15 - - 3.4
24/07:30am 6.5 2.3 5.8 95 0.3 W 17 26 9 14 - - 3.4
24/07:00am 6.2 1.6 5.6 96 0.3 W 19 30 10 16 - - 3.4
24/06:30am 6.1 2.2 5.5 96 0.3 W 15 26 8 14 - - 3.4
24/06:00am 6.3 2.1 5.6 95 0.3 W 17 28 9 15 - - 3.4
24/05:30am 6.7 2.1 5.8 94 0.4 W 19 39 10 21 - - 3.4
24/05:00am 7.0 2.3 6.1 94 0.5 W 20 35 11 19 - - 3.4
24/04:30am 7.4 2.8 6.5 94 0.5 W 20 37 11 20 - - 3.4
24/04:01am 7.8 1.8 6.9 94 0.5 W 28 50 15 27 - - 3.4
24/04:00am 7.8 2.1 6.9 94 0.5 W 26 50 14 27 - - 3.4
24/03:56am 8.2 2.3 7.3 94 0.5 W 28 50 15 27 - - 3.4
24/03:30am 7.8 2.6 7.1 95 0.4 WSW 24 50 13 27 - - 3.4
24/03:00am 7.8 2.6 7.2 96 0.3 WSW 24 44 13 24 - - 3.4
24/02:30am 8.1 2.9 7.3 95 0.4 WSW 24 56 13 30 - - 3.4
24/02:00am 8.0 2.8 7.2 95 0.4 WSW 24 50 13 27 - - 3.4
24/01:30am 8.6 3.9 7.7 94 0.5 WSW 22 44 12 24 - - 3.4
24/01:00am 9.2 4.6 8.1 93 0.6 WSW 22 39 12 21 - - 3.4
24/12:30am 9.4 4.1 8.3 93 0.6 WSW 26 44 14 24 - - 3.4
24/12:00am 9.3 4.8 8.4 94 0.5 WSW 22 41 12 22 - - 3.4
 
Date/Time
EDT
Temp
°C
App
Temp
°C
Dew
Point
°C
Rel
Hum
%
Delta-T
°C
Wind Press
QNH
hPa
Press
MSL
hPa
Rain since
9am
mm
Dir  Spd
km/h
Gust
km/h
Spd
kts
Gust
kts
23/11:30pm 9.8 5.0 8.7 93 0.6 WSW 24 44 13 24 - - 3.4
23/11:00pm 9.3 4.8 8.4 94 0.5 WSW 22 46 12 25 - - 3.4
23/10:30pm 9.9 5.0 8.3 90 0.9 WSW 24 52 13 28 - - 3.4
23/10:00pm 9.6 4.7 8.5 93 0.6 W 24 46 13 25 - - 3.4
23/09:30pm 9.7 4.5 8.8 94 0.5 W 26 52 14 28 - - 3.4
23/09:00pm 9.3 3.7 8.7 96 0.3 W 28 48 15 26 - - 3.4
23/08:59pm 9.4 3.8 8.8 96 0.3 W 28 48 15 26 - - 3.4
23/08:30pm 9.0 4.5 8.7 98 0.2 W 22 44 12 24 - - 3.2
23/08:00pm 9.1 5.0 8.8 98 0.2 W 20 39 11 21 - - 3.2
23/07:30pm 9.7 5.8 9.4 98 0.2 W 20 41 11 22 - - 2.6
23/07:00pm 10.0 6.4 9.7 98 0.2 W 19 35 10 19 - - 2.2
23/06:30pm 10.0 5.4 9.5 97 0.3 WNW 24 48 13 26 - - 1.8
23/06:00pm 10.9 7.3 10.4 97 0.3 WNW 20 41 11 22 - - 1.6
23/05:30pm 12.2 8.8 11.4 95 0.5 WNW 20 39 11 21 - - 0.2
23/05:00pm 12.3 8.6 11.5 95 0.5 W 22 41 12 22 - - 0.2
23/04:30pm 14.3 9.1 8.9 70 3.0 WNW 26 48 14 26 - - 0.0
23/04:00pm 15.8 9.7 8.3 61 4.2 WNW 30 57 16 31 - - 0.0
23/03:30pm 16.8 10.6 8.0 56 4.9 WNW 30 56 16 30 - - 0.0
23/03:00pm 16.9 10.6 8.8 59 4.6 NW 32 59 17 32 - - 0.0
23/02:45pm 17.0 9.2 8.4 57 4.8 NW 39 78 21 42 - - 0.0
23/02:30pm 17.8 11.4 8.4 54 5.3 NW 32 57 17 31 - - 0.0
23/02:00pm 16.9 9.7 7.5 54 5.2 NW 35 74 19 40 - - 0.0
23/01:30pm 16.8 10.2 6.0 49 5.8 NW 30 59 16 32 - - 0.0
23/01:00pm 17.7 8.8 5.0 43 6.7 NW 41 69 22 37 - - 0.0
23/12:30pm 19.2 9.8 4.2 37 7.9 NW 43 72 23 39 - - 0.0
23/12:00pm 19.8 11.6 4.7 37 8.0 NW 37 65 20 35 - - 0.0
23/11:36am 18.9 10.4 3.1 35 8.1 NW 37 76 20 41 - - 0.0
23/11:30am 19.3 11.7 3.1 34 8.3 NW 32 56 17 30 - - 0.0
23/11:00am 19.7 9.8 1.7 30 9.0 NW 43 80 23 43 - - 0.0
23/10:56am 19.7 9.6 1.7 30 9.0 NW 44 80 24 43 - - 0.0
23/10:30am 20.6 11.7 2.9 31 9.1 NW 39 61 21 33 - - 0.0
23/10:00am 20.5 10.6 1.4 28 9.6 NW 43 74 23 40 - - 0.0
23/09:30am 20.5 9.0 -0.2 25 10.1 NW 50 87 27 47 - - 0.0
23/09:00am 20.2 9.9 -1.0 24 10.1 NW 43 76 23 41 - - 0.0
23/08:30am 19.2 8.7 -1.3 25 9.7 NNW 44 91 24 49 - - 0.0
23/08:00am 18.8 8.8 -1.6 25 9.5 NNW 41 85 22 46 - - 0.0
23/07:30am 18.8 8.4 -1.6 25 9.5 NNW 43 80 23 43 - - 0.0
23/07:00am 18.5 8.1 -1.9 25 9.4 NNW 43 72 23 39 - - 0.0
23/06:30am 17.7 8.0 -2.0 26 9.0 NNW 39 74 21 40 - - 0.0
23/06:00am 17.8 9.0 -1.4 27 8.9 NNW 35 74 19 40 - - 0.0
23/05:30am 17.3 9.0 -1.4 28 8.7 NNW 32 63 17 34 - - 0.0
23/05:00am 17.1 9.3 -1.1 29 8.5 NNW 30 61 16 33 - - 0.0
23/04:30am 17.1 9.7 -0.6 30 8.3 NNW 28 52 15 28 - - 0.0
23/04:00am 17.0 9.6 -0.7 30 8.3 NNW 28 52 15 28 - - 0.0
23/03:30am 16.9 9.6 -0.3 31 8.1 NNW 28 57 15 31 - - 0.0
23/03:24am 17.3 10.0 0.0 31 8.2 NNW 28 57 15 31 - - 0.0
23/03:00am 17.1 10.2 -0.1 31 8.2 NNW 26 56 14 30 - - 0.0
23/02:53am 17.0 9.7 0.2 32 8.0 NNW 28 56 15 30 - - 0.0
23/02:30am 16.4 9.9 0.1 33 7.7 N 24 52 13 28 - - 0.0
23/02:00am 16.8 10.7 0.5 33 7.8 N 22 44 12 24 - - 0.0
23/01:30am 17.0 10.9 0.6 33 7.9 N 22 46 12 25 - - 0.0
23/01:00am 17.2 11.5 0.8 33 7.9 N 20 41 11 22 - - 0.0
23/12:30am 17.4 10.9 0.6 32 8.1 N 24 44 13 24 - - 0.0
23/12:00am 17.7 11.6 0.4 31 8.3 N 22 54 12 29 - - 0.0
 
Date/Time
EDT
Temp
°C
App
Temp
°C
Dew
Point
°C
Rel
Hum
%
Delta-T
°C
Wind Press
QNH
hPa
Press
MSL
hPa
Rain since
9am
mm
Dir  Spd
km/h
Gust
km/h
Spd
kts
Gust
kts
22/11:30pm 17.8 12.0 0.0 30 8.5 N 20 39 11 21 - - 0.0
22/11:00pm 17.6 12.4 0.3 31 8.3 N 17 33 9 18 - - 0.0
22/10:30pm 17.4 12.3 0.6 32 8.1 N 17 41 9 22 - - 0.0

Latest Capital City Observations: Canberra | Sydney | Melbourne | Brisbane | Adelaide | Perth | Hobart | Darwin

Other formats

Comma delimited format used in spreadsheet applications
http://www.bom.gov.au/fwo/IDN60903/IDN60903.95925.axf

JavaScript Object Notation format (JSON) in row-major order
http://www.bom.gov.au/fwo/IDN60903/IDN60903.95925.json

Data quality

Most of these data are generated automatically and are frequently updated. Quality checks on data are not normally performed. It is possible for incorrect values to appear. Refer to information at About Latest Weather Observations and please check the disclaimer before using these data.